Time;durP1;ratioP1;P1;durP2;ratioP2;P2;SDS_P1;SDS_P2;PMS_P1;PMS_P2;Temp;Humidity;BMP_temperature;BMP_pressure;BME280_temperature;BME280_humidity;BME280_pressure;Samples;Min_cycle;Max_cycle;Signal;HPM_P1;HPM_P2
2023/06/27 00:00:12;;;;;;;;;;;15.50;99.90;;;;;;5136163;27;19956;-44
2023/06/27 00:02:38;;;;;;;;;;;15.50;99.90;;;;;;5136805;27;19907;-43
2023/06/27 00:05:04;;;;;;;;;;;15.60;99.90;;;;;;5136916;27;20044;-43
2023/06/27 00:07:30;;;;;;;;;;;15.50;99.90;;;;;;5135822;27;19907;-41
2023/06/27 00:09:55;;;;;;;;;;;15.50;99.90;;;;;;5128090;27;20279;-42
2023/06/27 00:12:21;;;;;;;;;;;15.50;99.90;;;;;;5136707;27;19960;-43
2023/06/27 00:14:47;;;;;;;;;;;15.50;99.90;;;;;;5135732;27;19920;-41
2023/06/27 00:17:13;;;;;;;;;;;15.40;99.90;;;;;;5136463;27;19914;-45
2023/06/27 00:19:39;;;;;;;;;;;15.50;99.90;;;;;;5136480;27;20002;-43
2023/06/27 00:22:09;;;;;;;;;;;15.50;99.90;;;;;;5135802;27;20013;-42
2023/06/27 00:24:38;;;;;;;;;;;15.50;99.90;;;;;;5136404;27;19912;-42
2023/06/27 00:27:04;;;;;;;;;;;15.40;99.90;;;;;;5136257;27;19911;-41
2023/06/27 00:29:30;;;;;;;;;;;15.40;99.90;;;;;;5135137;27;20396;-42
2023/06/27 00:31:56;;;;;;;;;;;15.40;99.90;;;;;;5135995;27;19914;-42
2023/06/27 00:34:21;;;;;;;;;;;15.40;99.90;;;;;;5135333;27;19915;-43
2023/06/27 00:36:47;;;;;;;;;;;15.40;99.90;;;;;;5135304;27;19907;-42
2023/06/27 00:39:12;;;;;;;;;;;15.40;99.90;;;;;;5135926;27;19920;-43
2023/06/27 00:41:38;;;;;;;;;;;15.40;99.90;;;;;;5135338;27;20358;-41
2023/06/27 00:44:06;;;;;;;;;;;15.40;99.90;;;;;;5136147;27;19912;-42
2023/06/27 00:46:35;;;;;;;;;;;15.30;99.90;;;;;;5135916;27;19919;-43
2023/06/27 00:49:01;;;;;;;;;;;15.30;99.90;;;;;;5135289;27;19912;-41
2023/06/27 00:51:26;;;;;;;;;;;15.30;99.90;;;;;;5135847;27;20322;-46
2023/06/27 00:53:52;;;;;;;;;;;15.30;99.90;;;;;;5135387;27;19981;-43
2023/06/27 00:56:17;;;;;;;;;;;15.30;99.90;;;;;;5134670;27;19911;-41
2023/06/27 00:58:43;;;;;;;;;;;15.30;99.90;;;;;;5135708;27;20433;-41
2023/06/27 01:01:09;;;;;;;;;;;15.30;99.90;;;;;;5135658;27;19908;-41
2023/06/27 01:03:35;;;;;;;;;;;15.20;99.90;;;;;;5134833;27;19952;-42
2023/06/27 01:06:06;;;;;;;;;;;15.20;99.90;;;;;;5135591;27;20006;-41
2023/06/27 01:08:36;;;;;;;;;;;15.20;99.90;;;;;;5135571;27;19914;-41
2023/06/27 01:11:05;;;;;;;;;;;15.10;99.90;;;;;;5135012;27;19914;-43
2023/06/27 01:13:37;;;;;;;;;;;15.10;99.90;;;;;;5135255;27;19912;-46
2023/06/27 01:16:03;;;;;;;;;;;15.10;99.90;;;;;;5135461;27;19911;-41
2023/06/27 01:18:31;;;;;;;;;;;15.10;99.90;;;;;;5134572;27;19911;-41
2023/06/27 01:20:58;;;;;;;;;;;15.00;99.90;;;;;;5135427;27;19922;-41
2023/06/27 01:23:31;;;;;;;;;;;15.00;99.90;;;;;;5135055;27;19919;-41
2023/06/27 01:26:09;;;;;;;;;;;14.90;99.90;;;;;;5134939;27;19935;-45
2023/06/27 01:28:36;;;;;;;;;;;15.00;99.90;;;;;;5135040;27;19918;-40
2023/06/27 01:31:02;;;;;;;;;;;14.90;99.90;;;;;;5134418;27;19976;-41
2023/06/27 01:33:29;;;;;;;;;;;14.90;99.90;;;;;;5134906;27;20353;-41
2023/06/27 01:35:57;;;;;;;;;;;14.90;99.90;;;;;;5135089;27;19947;-42
2023/06/27 01:38:32;;;;;;;;;;;14.80;99.90;;;;;;5133857;27;19955;-45
2023/06/27 01:40:59;;;;;;;;;;;14.80;99.90;;;;;;5134962;27;19908;-41
2023/06/27 01:43:25;;;;;;;;;;;14.80;99.90;;;;;;5134480;27;19922;-42
2023/06/27 01:45:51;;;;;;;;;;;14.70;99.90;;;;;;5134141;27;19951;-46
2023/06/27 01:48:17;;;;;;;;;;;14.70;99.90;;;;;;5134787;27;19962;-46
2023/06/27 01:50:42;;;;;;;;;;;14.80;99.90;;;;;;5134735;27;20338;-44
2023/06/27 01:53:08;;;;;;;;;;;14.80;99.90;;;;;;5133821;27;20290;-42
2023/06/27 01:55:33;;;;;;;;;;;14.70;99.90;;;;;;5134621;27;19912;-43
2023/06/27 01:57:59;;;;;;;;;;;14.70;99.90;;;;;;5134742;27;20270;-40
2023/06/27 02:00:25;;;;;;;;;;;14.70;99.90;;;;;;5133754;27;19908;-43
2023/06/27 02:02:50;;;;;;;;;;;14.60;99.90;;;;;;5134671;27;19914;-44
2023/06/27 02:05:16;;;;;;;;;;;14.70;99.90;;;;;;5134512;27;19908;-42
2023/06/27 02:07:41;;;;;;;;;;;14.60;99.90;;;;;;5133591;27;19907;-43
2023/06/27 02:10:07;;;;;;;;;;;14.60;99.90;;;;;;5134425;27;19914;-44
2023/06/27 02:12:33;;;;;;;;;;;14.50;99.90;;;;;;5133977;27;19911;-41
2023/06/27 02:14:58;;;;;;;;;;;14.40;99.90;;;;;;5133433;27;19983;-43
2023/06/27 02:17:24;;;;;;;;;;;14.40;99.90;;;;;;5134289;27;19919;-43
2023/06/27 02:19:49;;;;;;;;;;;14.40;99.90;;;;;;5133149;27;20258;-40
2023/06/27 02:22:14;;;;;;;;;;;14.40;99.90;;;;;;5134134;27;19907;-41
2023/06/27 02:24:40;;;;;;;;;;;14.40;99.90;;;;;;5134104;27;20277;-41
2023/06/27 02:27:06;;;;;;;;;;;14.50;99.90;;;;;;5133242;27;19916;-40
2023/06/27 02:29:31;;;;;;;;;;;14.50;99.90;;;;;;5133977;27;19911;-41
2023/06/27 02:31:57;;;;;;;;;;;14.50;99.90;;;;;;5134012;27;19907;-40
2023/06/27 02:34:22;;;;;;;;;;;14.50;99.90;;;;;;5133151;27;19923;-42
2023/06/27 02:36:48;;;;;;;;;;;14.50;99.90;;;;;;5133815;27;20003;-41
2023/06/27 02:39:13;;;;;;;;;;;14.50;99.90;;;;;;5133723;27;19920;-42
2023/06/27 02:41:39;;;;;;;;;;;14.50;99.90;;;;;;5132870;27;19933;-44
2023/06/27 02:44:04;;;;;;;;;;;14.40;99.90;;;;;;5133975;27;19911;-42
2023/06/27 02:46:30;;;;;;;;;;;14.40;99.90;;;;;;5133797;27;19917;-42
2023/06/27 02:48:55;;;;;;;;;;;14.40;99.90;;;;;;5133135;27;19908;-40
2023/06/27 02:51:21;;;;;;;;;;;14.40;99.90;;;;;;5133598;27;19915;-45
2023/06/27 02:53:47;;;;;;;;;;;14.50;99.90;;;;;;5133803;27;19916;-41
2023/06/27 02:56:12;;;;;;;;;;;14.40;99.90;;;;;;5133040;27;19957;-40
2023/06/27 02:58:39;;;;;;;;;;;14.40;99.90;;;;;;5133646;28;19913;-42
2023/06/27 03:01:06;;;;;;;;;;;14.50;99.90;;;;;;5140032;27;19912;-42
2023/06/27 03:03:32;;;;;;;;;;;14.50;99.90;;;;;;5139782;27;19945;-42
2023/06/27 03:05:58;;;;;;;;;;;14.40;99.90;;;;;;5140514;27;20004;-42
2023/06/27 03:08:24;;;;;;;;;;;14.40;99.90;;;;;;5140473;27;19915;-42
2023/06/27 03:10:49;;;;;;;;;;;14.30;99.90;;;;;;5139696;27;19908;-42
2023/06/27 03:13:15;;;;;;;;;;;14.30;99.90;;;;;;5140055;27;20022;-46
2023/06/27 03:15:40;;;;;;;;;;;14.20;99.90;;;;;;5140370;27;19918;-41
2023/06/27 03:18:05;;;;;;;;;;;14.10;99.90;;;;;;5139650;27;19908;-42
2023/06/27 03:20:31;;;;;;;;;;;14.10;99.90;;;;;;5139938;27;20045;-41
2023/06/27 03:22:56;;;;;;;;;;;14.10;99.90;;;;;;5140379;27;19914;-41
2023/06/27 03:25:22;;;;;;;;;;;14.10;99.90;;;;;;5139564;27;20358;-42
2023/06/27 03:27:47;;;;;;;;;;;14.10;99.90;;;;;;5140485;27;20353;-43
2023/06/27 03:30:13;;;;;;;;;;;14.10;99.90;;;;;;5139531;27;19907;-42
2023/06/27 03:32:38;;;;;;;;;;;14.10;99.90;;;;;;5131258;27;20292;-42
2023/06/27 03:35:04;;;;;;;;;;;14.10;99.90;;;;;;5120118;27;19919;-41
2023/06/27 03:37:30;;;;;;;;;;;14.10;99.90;;;;;;5118805;28;19914;-42
2023/06/27 03:39:56;;;;;;;;;;;14.00;99.90;;;;;;5119373;28;19920;-42
2023/06/27 03:42:22;;;;;;;;;;;14.00;99.90;;;;;;5127582;27;20307;-41
2023/06/27 03:44:47;;;;;;;;;;;14.00;99.90;;;;;;5139500;27;19907;-40
2023/06/27 03:47:13;;;;;;;;;;;14.00;99.90;;;;;;5140253;27;19907;-44
2023/06/27 03:49:40;;;;;;;;;;;14.00;99.90;;;;;;5139182;27;20127;-42
2023/06/27 03:52:06;;;;;;;;;;;14.10;99.90;;;;;;5139321;27;19966;-42
2023/06/27 03:54:31;;;;;;;;;;;14.10;99.90;;;;;;5139879;27;19972;-42
2023/06/27 03:56:57;;;;;;;;;;;14.10;99.90;;;;;;5140078;27;20002;-41
2023/06/27 03:59:22;;;;;;;;;;;14.10;99.90;;;;;;5139219;27;19908;-41
2023/06/27 04:01:47;;;;;;;;;;;14.20;99.90;;;;;;5140117;27;20005;-40
2023/06/27 04:04:13;;;;;;;;;;;14.20;99.90;;;;;;5139989;27;19907;-42
2023/06/27 04:06:38;;;;;;;;;;;14.20;99.90;;;;;;5138845;27;20361;-40
2023/06/27 04:09:04;;;;;;;;;;;14.20;99.90;;;;;;5140038;27;20418;-41
2023/06/27 04:11:31;;;;;;;;;;;14.20;99.90;;;;;;5136713;27;19915;-42
2023/06/27 04:13:58;;;;;;;;;;;14.20;99.90;;;;;;5135618;27;19919;-41
2023/06/27 04:16:24;;;;;;;;;;;14.20;99.90;;;;;;5136608;27;19917;-41
2023/06/27 04:18:50;;;;;;;;;;;14.20;99.90;;;;;;5136612;27;20296;-43
2023/06/27 04:21:15;;;;;;;;;;;14.30;99.90;;;;;;5135575;27;19911;-41
2023/06/27 04:23:41;;;;;;;;;;;14.30;99.90;;;;;;5136379;27;20273;-42
2023/06/27 04:26:08;;;;;;;;;;;14.30;99.90;;;;;;5136357;27;20281;-41
2023/06/27 04:28:34;;;;;;;;;;;14.40;99.90;;;;;;5135361;27;20285;-41
2023/06/27 04:31:00;;;;;;;;;;;14.40;99.90;;;;;;5136421;27;19907;-40
2023/06/27 04:33:27;;;;;;;;;;;14.50;99.90;;;;;;5135460;27;19911;-41
2023/06/27 04:36:00;;;;;;;;;;;14.50;99.90;;;;;;5136392;27;19915;-41
2023/06/27 04:38:37;;;;;;;;;;;14.50;99.90;;;;;;5135864;27;19944;-41
2023/06/27 04:41:04;;;;;;;;;;;14.50;99.90;;;;;;5135658;27;19930;-44
2023/06/27 04:43:30;;;;;;;;;;;14.50;99.90;;;;;;5135944;27;19992;-41
2023/06/27 04:45:55;;;;;;;;;;;14.50;99.90;;;;;;5136047;27;19965;-42
2023/06/27 04:48:21;;;;;;;;;;;14.50;99.90;;;;;;5135267;27;19915;-40
2023/06/27 04:50:46;;;;;;;;;;;14.50;99.90;;;;;;5135902;27;19999;-40
2023/06/27 04:53:11;;;;;;;;;;;14.60;99.90;;;;;;5135805;27;19908;-41
2023/06/27 04:55:37;;;;;;;;;;;14.70;99.90;;;;;;5135019;27;19911;-41
2023/06/27 04:58:03;;;;;;;;;;;14.80;99.90;;;;;;5135925;27;20377;-46
2023/06/27 05:00:29;;;;;;;;;;;14.80;99.90;;;;;;5135877;27;19949;-41
2023/06/27 05:02:56;;;;;;;;;;;14.90;99.90;;;;;;5135085;27;19912;-42
2023/06/27 05:05:21;;;;;;;;;;;14.90;99.90;;;;;;5135589;27;19961;-41
2023/06/27 05:07:47;;;;;;;;;;;15.00;99.90;;;;;;5135607;27;20346;-45
2023/06/27 05:10:12;;;;;;;;;;;15.00;99.90;;;;;;5130354;27;19920;-41
2023/06/27 05:12:38;;;;;;;;;;;15.10;99.90;;;;;;5125938;27;19916;-42
2023/06/27 05:15:04;;;;;;;;;;;15.10;99.90;;;;;;5126243;27;19960;-41
2023/06/27 05:17:30;;;;;;;;;;;15.10;99.90;;;;;;5119925;27;20348;-42
2023/06/27 05:19:55;;;;;;;;;;;15.20;99.90;;;;;;5118411;27;20425;-42
2023/06/27 05:22:20;;;;;;;;;;;15.20;99.90;;;;;;5114830;27;19912;-44
2023/06/27 05:24:46;;;;;;;;;;;15.20;99.90;;;;;;5126073;27;19908;-41
2023/06/27 05:27:11;;;;;;;;;;;15.30;99.90;;;;;;5129732;27;19915;-40
2023/06/27 05:29:37;;;;;;;;;;;15.30;99.90;;;;;;5118666;27;19919;-47
2023/06/27 05:32:03;;;;;;;;;;;15.30;99.90;;;;;;5120497;27;20389;-42
2023/06/27 05:34:28;;;;;;;;;;;15.40;99.90;;;;;;5134786;27;19968;-42
2023/06/27 05:36:54;;;;;;;;;;;15.40;99.90;;;;;;5122480;27;19916;-42
2023/06/27 05:39:19;;;;;;;;;;;15.50;99.90;;;;;;5126894;27;19923;-43
2023/06/27 05:41:44;;;;;;;;;;;15.60;99.90;;;;;;5124457;27;19918;-41
2023/06/27 05:44:10;;;;;;;;;;;15.70;99.90;;;;;;5133942;27;19972;-42
2023/06/27 05:46:39;;;;;;;;;;;15.80;99.90;;;;;;5134155;27;19915;-42
2023/06/27 05:49:04;;;;;;;;;;;15.90;99.90;;;;;;5134779;27;19912;-41
2023/06/27 05:51:30;;;;;;;;;;;16.00;99.90;;;;;;5133554;27;19911;-41
2023/06/27 05:53:56;;;;;;;;;;;16.10;99.90;;;;;;5134372;27;19969;-40
2023/06/27 05:56:21;;;;;;;;;;;16.20;99.90;;;;;;5133335;27;19912;-42
2023/06/27 05:58:47;;;;;;;;;;;16.30;99.90;;;;;;5133119;27;20301;-41
2023/06/27 06:01:12;;;;;;;;;;;16.50;99.90;;;;;;5133946;27;19964;-45
2023/06/27 06:03:38;;;;;;;;;;;16.60;99.90;;;;;;5134440;27;19942;-41
2023/06/27 06:06:03;;;;;;;;;;;16.70;99.90;;;;;;5133399;27;19911;-43
2023/06/27 06:08:29;;;;;;;;;;;16.80;99.90;;;;;;5133799;27;19916;-41
2023/06/27 06:10:54;;;;;;;;;;;16.90;99.90;;;;;;5133190;27;20366;-41
2023/06/27 06:13:20;;;;;;;;;;;17.00;99.90;;;;;;5132796;27;19919;-43
2023/06/27 06:15:45;;;;;;;;;;;17.10;99.90;;;;;;5133295;27;20006;-44
2023/06/27 06:18:10;;;;;;;;;;;17.10;99.90;;;;;;5133743;27;19912;-43
2023/06/27 06:20:36;;;;;;;;;;;17.20;99.90;;;;;;5132767;27;19954;-43
2023/06/27 06:23:02;;;;;;;;;;;17.30;99.90;;;;;;5132122;27;20002;-42
2023/06/27 06:25:27;;;;;;;;;;;17.40;99.90;;;;;;5124883;27;19915;-44
2023/06/27 06:27:53;;;;;;;;;;;17.50;99.90;;;;;;5124410;27;19946;-47
2023/06/27 06:30:18;;;;;;;;;;;17.70;99.90;;;;;;5130902;27;19911;-43
2023/06/27 06:32:44;;;;;;;;;;;17.80;99.90;;;;;;5132685;27;19919;-43
2023/06/27 06:35:09;;;;;;;;;;;17.80;99.90;;;;;;5132290;27;19938;-43
2023/06/27 06:37:35;;;;;;;;;;;17.90;99.90;;;;;;5133786;27;20281;-41
2023/06/27 06:40:00;;;;;;;;;;;18.10;99.90;;;;;;5132767;27;19931;-42
2023/06/27 06:42:26;;;;;;;;;;;18.10;99.90;;;;;;5118200;27;19912;-41
2023/06/27 06:44:51;;;;;;;;;;;18.20;99.90;;;;;;5129194;27;19912;-44
2023/06/27 06:47:17;;;;;;;;;;;18.30;99.90;;;;;;5132049;27;19926;-44
2023/06/27 06:49:42;;;;;;;;;;;18.40;99.90;;;;;;5133279;27;19916;-42
2023/06/27 06:52:08;;;;;;;;;;;18.50;99.90;;;;;;5113045;28;19908;-42
2023/06/27 06:54:33;;;;;;;;;;;18.60;99.90;;;;;;5131612;27;19915;-43
2023/06/27 06:56:59;;;;;;;;;;;18.70;99.90;;;;;;5129696;27;19912;-44
2023/06/27 06:59:24;;;;;;;;;;;18.70;99.90;;;;;;5126714;28;19915;-42
2023/06/27 07:01:51;;;;;;;;;;;18.80;99.90;;;;;;5125032;28;19912;-43
2023/06/27 07:04:16;;;;;;;;;;;18.90;99.90;;;;;;5133588;28;19915;-43
2023/06/27 07:06:42;;;;;;;;;;;19.00;99.90;;;;;;5133067;28;19911;-43
2023/06/27 07:09:07;;;;;;;;;;;19.10;99.90;;;;;;5129608;28;20273;-43
2023/06/27 07:11:33;;;;;;;;;;;19.20;99.90;;;;;;5128611;28;19915;-44
2023/06/27 07:13:59;;;;;;;;;;;19.30;99.90;;;;;;5122852;28;19919;-44
2023/06/27 07:16:24;;;;;;;;;;;19.40;99.90;;;;;;5132170;28;20010;-42
2023/06/27 07:18:51;;;;;;;;;;;19.50;99.90;;;;;;5121010;28;20420;-41
2023/06/27 07:21:16;;;;;;;;;;;19.60;99.90;;;;;;5132081;28;20341;-42
2023/06/27 07:23:42;;;;;;;;;;;19.60;99.90;;;;;;5128732;28;19992;-43
2023/06/27 07:26:07;;;;;;;;;;;19.70;99.90;;;;;;5124587;28;19915;-42
2023/06/27 07:28:33;;;;;;;;;;;19.70;99.90;;;;;;5132333;28;19946;-43
2023/06/27 07:30:58;;;;;;;;;;;19.80;99.90;;;;;;5131892;28;19936;-41
2023/06/27 07:33:24;;;;;;;;;;;19.90;99.90;;;;;;5131921;28;20273;-43
2023/06/27 07:35:50;;;;;;;;;;;19.90;99.90;;;;;;5132350;28;19912;-41
2023/06/27 07:38:18;;;;;;;;;;;19.90;99.70;;;;;;5119651;28;20356;-44
2023/06/27 07:40:44;;;;;;;;;;;19.90;99.10;;;;;;5132175;28;20281;-43
2023/06/27 07:43:10;;;;;;;;;;;19.90;99.90;;;;;;5127491;27;19912;-42
2023/06/27 07:45:35;;;;;;;;;;;19.90;98.90;;;;;;5132037;27;19912;-44
2023/06/27 07:48:01;;;;;;;;;;;20.00;99.00;;;;;;5135507;27;20262;-46
2023/06/27 07:50:26;;;;;;;;;;;20.00;98.90;;;;;;5135089;27;19915;-41
2023/06/27 07:52:52;;;;;;;;;;;20.20;97.60;;;;;;5136561;27;19931;-41
2023/06/27 07:55:17;;;;;;;;;;;20.30;96.70;;;;;;5135544;27;19979;-42
2023/06/27 07:57:43;;;;;;;;;;;20.50;97.30;;;;;;5135353;27;19911;-42
2023/06/27 08:00:08;;;;;;;;;;;20.60;96.60;;;;;;5129300;27;19918;-43
2023/06/27 08:02:34;;;;;;;;;;;20.80;96.90;;;;;;5126874;27;19915;-42
2023/06/27 08:05:00;;;;;;;;;;;21.00;97.30;;;;;;5117633;27;20033;-43
2023/06/27 08:07:26;;;;;;;;;;;21.20;97.90;;;;;;5136087;27;19952;-42
2023/06/27 08:09:51;;;;;;;;;;;21.20;96.30;;;;;;5135498;27;19946;-43
2023/06/27 08:12:17;;;;;;;;;;;21.20;93.50;;;;;;5134500;27;19918;-41
2023/06/27 08:14:45;;;;;;;;;;;21.10;93.70;;;;;;5123818;27;20120;-41
2023/06/27 08:17:10;;;;;;;;;;;21.00;94.40;;;;;;5118751;27;19919;-41
2023/06/27 08:19:36;;;;;;;;;;;21.00;95.30;;;;;;5130450;27;19915;-42
2023/06/27 08:22:01;;;;;;;;;;;21.00;93.10;;;;;;5119796;27;19927;-42
2023/06/27 08:24:27;;;;;;;;;;;21.10;94.10;;;;;;5128946;27;19911;-45
2023/06/27 08:26:55;;;;;;;;;;;21.10;93.40;;;;;;5133702;27;19919;-41
2023/06/27 08:29:20;;;;;;;;;;;21.10;93.10;;;;;;5136120;27;19908;-42
2023/06/27 08:31:48;;;;;;;;;;;21.00;93.30;;;;;;5135452;27;19934;-42
2023/06/27 08:34:13;;;;;;;;;;;21.00;92.80;;;;;;5130466;27;19923;-42
2023/06/27 08:36:39;;;;;;;;;;;20.90;93.50;;;;;;5133971;27;20308;-46
2023/06/27 08:39:05;;;;;;;;;;;20.90;93.10;;;;;;5136085;27;20002;-41
2023/06/27 08:41:30;;;;;;;;;;;20.80;93.30;;;;;;5134833;27;20019;-42
2023/06/27 08:43:56;;;;;;;;;;;20.80;92.60;;;;;;5131786;27;19965;-42
2023/06/27 08:46:22;;;;;;;;;;;20.80;93.10;;;;;;5118724;27;19967;-44
2023/06/27 08:48:47;;;;;;;;;;;20.80;92.50;;;;;;5133557;27;20433;-45
2023/06/27 08:51:14;;;;;;;;;;;20.80;92.80;;;;;;5136164;27;19911;-41
2023/06/27 08:53:42;;;;;;;;;;;21.00;92.50;;;;;;5131000;27;19970;-41
2023/06/27 08:56:09;;;;;;;;;;;21.10;92.30;;;;;;5125314;27;19915;-43
2023/06/27 08:58:55;;;;;;;;;;;21.30;92.90;;;;;;5120439;27;19912;-44
2023/06/27 09:01:22;;;;;;;;;;;21.50;91.80;;;;;;5133831;27;19912;-41
2023/06/27 09:03:48;;;;;;;;;;;21.60;90.80;;;;;;5116165;27;19912;-42
2023/06/27 09:06:14;;;;;;;;;;;21.60;90.40;;;;;;5134610;27;19937;-42
2023/06/27 09:08:40;;;;;;;;;;;21.70;91.00;;;;;;5120928;27;19916;-43
2023/06/27 09:11:09;;;;;;;;;;;21.60;89.40;;;;;;5124001;27;19912;-42
2023/06/27 09:13:36;;;;;;;;;;;21.70;90.30;;;;;;5115493;27;19924;-41
2023/06/27 09:16:02;;;;;;;;;;;21.70;83.60;;;;;;5117497;27;19954;-43
2023/06/27 09:18:28;;;;;;;;;;;21.90;83.20;;;;;;5121248;27;19911;-41
2023/06/27 09:20:54;;;;;;;;;;;22.10;86.40;;;;;;5133140;27;19918;-44
2023/06/27 09:23:20;;;;;;;;;;;22.20;86.10;;;;;;5128688;27;19951;-44
2023/06/27 09:25:46;;;;;;;;;;;22.30;85.50;;;;;;5120264;27;19960;-42
2023/06/27 09:28:19;;;;;;;;;;;22.30;81.00;;;;;;5134901;27;19912;-43
2023/06/27 09:30:53;;;;;;;;;;;22.40;82.80;;;;;;5124478;27;19911;-43
2023/06/27 09:33:19;;;;;;;;;;;22.30;80.20;;;;;;5133635;27;19911;-41
2023/06/27 09:35:45;;;;;;;;;;;22.40;82.10;;;;;;5135086;27;19911;-44
2023/06/27 09:38:11;;;;;;;;;;;22.40;82.10;;;;;;5133361;27;20266;-42
2023/06/27 09:40:36;;;;;;;;;;;22.50;80.50;;;;;;5127670;27;19911;-43
2023/06/27 09:43:03;;;;;;;;;;;22.50;78.30;;;;;;5133163;27;20377;-43
2023/06/27 09:45:30;;;;;;;;;;;22.60;81.40;;;;;;5130782;27;19956;-46
2023/06/27 09:47:55;;;;;;;;;;;22.50;78.00;;;;;;5122425;27;19911;-43
2023/06/27 09:50:25;;;;;;;;;;;22.50;78.00;;;;;;5132238;27;20281;-42
2023/06/27 09:52:55;;;;;;;;;;;22.60;80.20;;;;;;5132459;27;19911;-42
2023/06/27 09:55:21;;;;;;;;;;;22.70;81.60;;;;;;5134743;27;19945;-43
2023/06/27 09:57:47;;;;;;;;;;;22.70;84.10;;;;;;5127276;27;19911;-43
2023/06/27 10:00:13;;;;;;;;;;;22.80;82.40;;;;;;5130629;27;20422;-42
2023/06/27 10:02:39;;;;;;;;;;;23.00;84.30;;;;;;5126720;27;19911;-42
2023/06/27 10:05:05;;;;;;;;;;;23.10;79.70;;;;;;5134655;27;20010;-42
2023/06/27 10:07:30;;;;;;;;;;;23.20;78.30;;;;;;5134686;27;19911;-44
2023/06/27 10:09:56;;;;;;;;;;;23.20;79.40;;;;;;5134315;27;19964;-41
2023/06/27 10:12:22;;;;;;;;;;;23.20;79.60;;;;;;5134467;27;19907;-45
2023/06/27 10:14:47;;;;;;;;;;;23.20;80.00;;;;;;5130527;27;19963;-44
2023/06/27 10:17:18;;;;;;;;;;;23.20;80.60;;;;;;5133808;27;19911;-41
2023/06/27 10:19:44;;;;;;;;;;;23.10;77.40;;;;;;5133227;27;19994;-43
2023/06/27 10:22:11;;;;;;;;;;;23.20;80.80;;;;;;5131220;27;19916;-42
2023/06/27 10:24:39;;;;;;;;;;;23.10;79.10;;;;;;5132641;27;20361;-42
2023/06/27 10:27:07;;;;;;;;;;;23.10;81.00;;;;;;5137562;27;20338;-43
2023/06/27 10:29:33;;;;;;;;;;;23.00;76.50;;;;;;5130290;27;19922;-44
2023/06/27 10:31:59;;;;;;;;;;;23.00;79.80;;;;;;5128342;27;19911;-43
2023/06/27 10:34:24;;;;;;;;;;;23.00;80.00;;;;;;5133447;27;19971;-42
2023/06/27 10:37:00;;;;;;;;;;;23.10;82.80;;;;;;5133671;27;19911;-42
2023/06/27 10:39:30;;;;;;;;;;;23.10;80.00;;;;;;5131127;27;20018;-41
2023/06/27 10:42:03;;;;;;;;;;;23.30;79.70;;;;;;5133134;27;20271;-43
2023/06/27 10:44:29;;;;;;;;;;;23.20;81.70;;;;;;5133521;27;19960;-42
2023/06/27 10:47:13;;;;;;;;;;;23.20;82.20;;;;;;5133265;27;19994;-43
2023/06/27 10:49:38;;;;;;;;;;;23.10;82.40;;;;;;5133546;27;19994;-42
2023/06/27 10:52:04;;;;;;;;;;;23.00;82.70;;;;;;5133584;27;20322;-45
2023/06/27 10:54:30;;;;;;;;;;;22.90;82.60;;;;;;5132895;27;19915;-45
2023/06/27 10:56:58;;;;;;;;;;;22.90;83.80;;;;;;5130093;27;19969;-42
2023/06/27 10:59:24;;;;;;;;;;;22.80;82.80;;;;;;5133044;27;19908;-44
2023/06/27 11:01:50;;;;;;;;;;;22.70;84.10;;;;;;5133095;27;19907;-41
2023/06/27 11:04:17;;;;;;;;;;;22.80;83.80;;;;;;5134104;28;19935;-42
2023/06/27 11:06:45;;;;;;;;;;;23.00;83.10;;;;;;5126748;28;20365;-45
2023/06/27 11:09:13;;;;;;;;;;;23.00;82.30;;;;;;5133265;28;19908;-43
2023/06/27 11:11:39;;;;;;;;;;;23.10;83.10;;;;;;5133498;28;19914;-43
2023/06/27 11:14:05;;;;;;;;;;;23.20;82.50;;;;;;5133613;28;19915;-41
2023/06/27 11:16:32;;;;;;;;;;;23.40;81.30;;;;;;5131322;28;19918;-42
2023/06/27 11:18:58;;;;;;;;;;;23.70;79.20;;;;;;5121859;28;19912;-46
2023/06/27 11:21:24;;;;;;;;;;;23.70;80.80;;;;;;5124164;27;19918;-41
2023/06/27 11:23:50;;;;;;;;;;;23.80;80.50;;;;;;5126270;27;19964;-41
2023/06/27 11:26:15;;;;;;;;;;;23.90;78.60;;;;;;5122808;27;19915;-41
2023/06/27 11:28:41;;;;;;;;;;;24.00;78.10;;;;;;5125055;27;19919;-43
2023/06/27 11:31:07;;;;;;;;;;;24.00;79.10;;;;;;5127196;27;19957;-44
2023/06/27 11:33:33;;;;;;;;;;;24.00;78.60;;;;;;5128402;27;19915;-43
2023/06/27 11:35:59;;;;;;;;;;;24.00;76.50;;;;;;5139832;27;20330;-41
2023/06/27 11:38:25;;;;;;;;;;;23.90;75.40;;;;;;5136944;27;19923;-42
2023/06/27 11:40:51;;;;;;;;;;;23.80;75.80;;;;;;5135168;27;19911;-43
2023/06/27 11:43:18;;;;;;;;;;;23.80;77.00;;;;;;5122590;27;20034;-41
2023/06/27 11:45:47;;;;;;;;;;;23.70;78.40;;;;;;5125560;27;19912;-43
2023/06/27 11:48:13;;;;;;;;;;;23.60;77.50;;;;;;5126588;27;20404;-42
2023/06/27 11:50:52;;;;;;;;;;;23.60;78.60;;;;;;5126122;27;19912;-42
2023/06/27 11:53:19;;;;;;;;;;;23.60;77.90;;;;;;5122916;27;20259;-42
2023/06/27 11:55:44;;;;;;;;;;;23.60;77.10;;;;;;5129406;27;20010;-42
2023/06/27 11:58:10;;;;;;;;;;;23.50;75.30;;;;;;5136300;27;20014;-47
2023/06/27 12:00:35;;;;;;;;;;;23.40;78.90;;;;;;5132908;27;19940;-42
2023/06/27 12:03:03;;;;;;;;;;;23.40;79.80;;;;;;5123006;27;19911;-41
2023/06/27 12:05:28;;;;;;;;;;;23.40;77.70;;;;;;5123521;27;19912;-42
2023/06/27 12:08:00;;;;;;;;;;;23.40;76.30;;;;;;5131136;27;19918;-45
2023/06/27 12:10:25;;;;;;;;;;;23.20;76.80;;;;;;5126255;27;19915;-42
2023/06/27 12:12:51;;;;;;;;;;;23.10;78.90;;;;;;5123135;27;20349;-42
2023/06/27 12:15:17;;;;;;;;;;;22.80;79.60;;;;;;5130482;27;19928;-43
2023/06/27 12:17:55;;;;;;;;;;;22.80;80.10;;;;;;5119498;27;20376;-42
2023/06/27 12:20:21;;;;;;;;;;;22.80;81.50;;;;;;5119349;27;19912;-42
2023/06/27 12:22:47;;;;;;;;;;;22.70;81.20;;;;;;5117915;27;19912;-42
2023/06/27 12:25:12;;;;;;;;;;;22.70;81.50;;;;;;5115146;27;20029;-43
2023/06/27 12:27:38;;;;;;;;;;;22.70;81.20;;;;;;5121802;27;19919;-43
2023/06/27 12:30:05;;;;;;;;;;;22.70;81.60;;;;;;5123461;27;19919;-43
2023/06/27 12:32:30;;;;;;;;;;;22.70;82.00;;;;;;5122970;27;19912;-42
2023/06/27 12:34:56;;;;;;;;;;;22.70;81.60;;;;;;5132647;27;19919;-42
2023/06/27 12:37:23;;;;;;;;;;;22.60;80.30;;;;;;5135117;27;19914;-43
2023/06/27 12:39:48;;;;;;;;;;;22.60;79.40;;;;;;5116955;27;19919;-42
2023/06/27 12:42:14;;;;;;;;;;;22.60;80.10;;;;;;5115329;28;19915;-46
2023/06/27 12:44:39;;;;;;;;;;;22.60;79.50;;;;;;5133527;27;19911;-43
2023/06/27 12:47:05;;;;;;;;;;;22.50;81.30;;;;;;5151001;27;19915;-42
2023/06/27 12:49:30;;;;;;;;;;;22.60;79.90;;;;;;5135146;27;19911;-43
2023/06/27 12:51:56;;;;;;;;;;;22.50;79.40;;;;;;5138435;27;19934;-43
2023/06/27 12:54:21;;;;;;;;;;;22.40;79.90;;;;;;5134445;27;20009;-43
2023/06/27 12:56:47;;;;;;;;;;;22.30;81.10;;;;;;5130222;27;19912;-44
2023/06/27 12:59:12;;;;;;;;;;;22.30;82.00;;;;;;5122826;27;20278;-43
2023/06/27 13:01:54;;;;;;;;;;;22.30;81.90;;;;;;5122853;27;19912;-42
2023/06/27 13:04:21;;;;;;;;;;;22.30;81.40;;;;;;5135044;27;19918;-42
2023/06/27 13:06:48;;;;;;;;;;;22.30;83.10;;;;;;5134495;27;19967;-46
2023/06/27 13:09:13;;;;;;;;;;;22.30;83.00;;;;;;5118644;27;19911;-41
2023/06/27 13:11:39;;;;;;;;;;;22.30;83.70;;;;;;5130662;27;19907;-41
2023/06/27 13:14:04;;;;;;;;;;;22.30;81.80;;;;;;5134698;27;19915;-42
2023/06/27 13:16:30;;;;;;;;;;;22.40;81.90;;;;;;5114296;27;19908;-49
2023/06/27 13:18:56;;;;;;;;;;;22.40;81.70;;;;;;5117461;27;20346;-45
2023/06/27 13:21:21;;;;;;;;;;;22.50;83.70;;;;;;5114486;27;20285;-44
2023/06/27 13:23:50;;;;;;;;;;;22.50;82.60;;;;;;5119387;27;19912;-44
2023/06/27 13:26:16;;;;;;;;;;;22.80;81.50;;;;;;5132753;27;19929;-42
2023/06/27 13:28:41;;;;;;;;;;;22.90;82.60;;;;;;5134138;27;19911;-41
2023/06/27 13:31:08;;;;;;;;;;;23.00;79.90;;;;;;5134897;27;19945;-43
2023/06/27 13:33:34;;;;;;;;;;;23.10;81.10;;;;;;5132118;27;19964;-44
2023/06/27 13:35:59;;;;;;;;;;;23.00;80.80;;;;;;5134297;27;19908;-42
2023/06/27 13:38:25;;;;;;;;;;;23.10;79.50;;;;;;5132549;27;19923;-42
2023/06/27 13:40:50;;;;;;;;;;;23.10;79.10;;;;;;5130178;27;19915;-45
2023/06/27 13:43:16;;;;;;;;;;;23.10;76.10;;;;;;5132163;27;19930;-42
2023/06/27 13:45:41;;;;;;;;;;;23.10;79.20;;;;;;5126608;27;20055;-43
2023/06/27 13:48:07;;;;;;;;;;;23.30;80.60;;;;;;5127635;27;19911;-42
2023/06/27 13:50:32;;;;;;;;;;;23.40;79.60;;;;;;5133911;27;20384;-41
2023/06/27 13:52:58;;;;;;;;;;;23.50;78.70;;;;;;5134834;27;19955;-45
2023/06/27 13:55:24;;;;;;;;;;;23.30;79.50;;;;;;5133123;27;19920;-41
2023/06/27 13:57:51;;;;;;;;;;;23.30;79.10;;;;;;5137747;27;19916;-44
2023/06/27 14:00:18;;;;;;;;;;;23.30;79.90;;;;;;5131733;27;19922;-44
2023/06/27 14:02:43;;;;;;;;;;;23.30;79.60;;;;;;5134017;27;19916;-41
2023/06/27 14:05:09;;;;;;;;;;;23.30;76.20;;;;;;5133769;27;19908;-42
2023/06/27 14:07:35;;;;;;;;;;;23.30;74.50;;;;;;5134137;27;19953;-41
2023/06/27 14:10:00;;;;;;;;;;;23.30;75.90;;;;;;5134533;27;20353;-41